Time;durP1;ratioP1;P1;durP2;ratioP2;P2;SDS_P1;SDS_P2;PMS_P1;PMS_P2;Temp;Humidity;BMP_temperature;BMP_pressure;BME280_temperature;BME280_humidity;BME280_pressure;Samples;Min_cycle;Max_cycle;Signal;HPM_P1;HPM_P2
2022/05/11 00:01:30;;;;;;;8.60;7.80;;;17.30;99.90;;;;;;4956450;28;20105;-79
2022/05/11 00:04:00;;;;;;;9.23;8.30;;;17.20;99.90;;;;;;4957433;28;20514;-79
2022/05/11 00:06:27;;;;;;;9.68;8.48;;;17.20;99.90;;;;;;4955968;29;20086;-80
2022/05/11 00:08:53;;;;;;;8.98;8.07;;;17.20;99.90;;;;;;4957904;28;20086;-80
2022/05/11 00:11:19;;;;;;;9.82;8.93;;;17.10;99.90;;;;;;4954693;28;20051;-78
2022/05/11 00:13:45;;;;;;;8.85;7.97;;;17.00;99.90;;;;;;4955151;28;20039;-80
2022/05/11 00:16:11;;;;;;;9.30;8.50;;;16.90;99.90;;;;;;4956961;28;20028;-78
2022/05/11 00:18:40;;;;;;;9.55;8.75;;;16.90;99.90;;;;;;4956927;28;20056;-79
2022/05/11 00:21:07;;;;;;;8.68;7.88;;;16.80;99.90;;;;;;4956870;28;20031;-78
2022/05/11 00:23:33;;;;;;;8.73;8.02;;;16.80;99.90;;;;;;4956070;29;20046;-79
2022/05/11 00:25:58;;;;;;;9.25;8.35;;;16.80;99.90;;;;;;4955411;29;20027;-80
2022/05/11 00:28:25;;;;;;;9.02;8.15;;;16.80;99.90;;;;;;4956241;28;20042;-79
2022/05/11 00:30:51;;;;;;;9.35;8.43;;;16.80;99.90;;;;;;4954503;28;20523;-78
2022/05/11 00:33:17;;;;;;;9.55;8.57;;;16.80;99.90;;;;;;4956579;28;20031;-80
2022/05/11 00:35:45;;;;;;;8.50;7.68;;;16.80;99.90;;;;;;4955940;29;20157;-81
2022/05/11 00:38:11;;;;;;;9.02;8.13;;;16.90;99.90;;;;;;4955389;28;20399;-79
2022/05/11 00:40:47;;;;;;;8.73;7.93;;;16.80;99.90;;;;;;4955389;28;20029;-80
2022/05/11 00:43:13;;;;;;;8.40;7.70;;;16.80;99.90;;;;;;4957041;28;20035;-79
2022/05/11 00:45:45;;;;;;;8.65;7.88;;;16.90;99.90;;;;;;4956073;28;20031;-78
2022/05/11 00:50:58;;;;;;;8.27;7.47;;;16.70;99.90;;;;;;4956204;28;20045;-78
2022/05/11 00:53:25;;;;;;;9.35;8.45;;;16.80;99.90;;;;;;4956815;28;20027;-80
2022/05/11 00:55:55;;;;;;;9.45;8.32;;;16.60;99.90;;;;;;4957837;28;20035;-80
2022/05/11 00:58:26;;;;;;;9.45;8.57;;;16.60;99.90;;;;;;4960036;28;20046;-78
2022/05/11 01:00:53;;;;;;;10.27;8.45;;;16.40;99.90;;;;;;4962234;28;20039;-80
2022/05/11 01:03:22;;;;;;;8.52;7.82;;;16.40;99.90;;;;;;4962018;29;20034;-79
2022/05/11 01:05:48;;;;;;;9.68;8.80;;;16.40;99.90;;;;;;4957567;28;20491;-80
2022/05/11 01:08:16;;;;;;;10.30;9.05;;;16.30;99.90;;;;;;4954404;29;20027;-79
2022/05/11 01:10:43;;;;;;;9.50;8.60;;;16.20;99.90;;;;;;4954549;28;20067;-80
2022/05/11 01:13:11;;;;;;;9.95;9.05;;;16.20;99.90;;;;;;4954359;28;20031;-79
2022/05/11 01:15:37;;;;;;;8.43;7.72;;;16.10;99.90;;;;;;4954714;29;20034;-79
2022/05/11 01:18:06;;;;;;;9.90;8.98;;;16.00;99.90;;;;;;4954097;28;20035;-79
2022/05/11 01:20:33;;;;;;;12.88;8.25;;;16.00;99.90;;;;;;4954874;29;20106;-78
2022/05/11 01:23:26;;;;;;;10.07;9.20;;;16.00;99.90;;;;;;4955809;28;20019;-79
2022/05/11 01:25:54;;;;;;;8.68;7.82;;;16.00;99.90;;;;;;4955283;28;20403;-79
2022/05/11 01:28:21;;;;;;;10.18;9.25;;;16.00;99.90;;;;;;4956003;28;20420;-79
2022/05/11 01:30:49;;;;;;;10.15;9.15;;;15.90;99.90;;;;;;4955074;28;20111;-79
2022/05/11 01:33:19;;;;;;;9.98;9.10;;;15.90;99.90;;;;;;4954793;29;20023;-80
2022/05/11 01:36:03;;;;;;;11.57;8.85;;;15.90;99.90;;;;;;4955234;28;20136;-79
2022/05/11 01:38:38;;;;;;;9.95;9.02;;;15.80;99.90;;;;;;4953732;29;20035;-79
2022/05/11 01:41:04;;;;;;;10.18;8.85;;;15.80;99.90;;;;;;4955236;28;20472;-78
2022/05/11 01:43:33;;;;;;;9.50;8.63;;;15.80;99.90;;;;;;4952934;29;20035;-79
2022/05/11 01:45:59;;;;;;;10.07;9.27;;;15.90;99.90;;;;;;4954703;28;20027;-78
2022/05/11 01:48:25;;;;;;;26.30;10.23;;;15.90;99.90;;;;;;4953152;29;20083;-78
2022/05/11 01:50:51;;;;;;;10.32;9.30;;;16.00;99.90;;;;;;4955423;28;20023;-79
2022/05/11 01:53:16;;;;;;;11.55;8.60;;;15.90;99.90;;;;;;4954418;29;20432;-80
2022/05/11 01:55:42;;;;;;;10.55;9.60;;;15.90;99.90;;;;;;4953705;29;20082;-79
2022/05/11 01:58:09;;;;;;;9.23;8.38;;;15.90;99.90;;;;;;4953617;28;20391;-80
2022/05/11 02:00:36;;;;;;;10.75;9.70;;;15.90;99.90;;;;;;4953912;28;20031;-79
2022/05/11 02:03:02;;;;;;;9.25;8.45;;;15.90;99.90;;;;;;4954568;28;20034;-80
2022/05/11 02:08:12;;;;;;;10.68;9.40;;;15.80;99.90;;;;;;4958987;29;20042;-80
2022/05/11 02:10:39;;;;;;;9.68;8.90;;;15.70;99.90;;;;;;4958492;28;20027;-80
2022/05/11 02:13:05;;;;;;;9.48;8.75;;;15.70;99.90;;;;;;4958525;28;20031;-79
2022/05/11 02:15:30;;;;;;;10.05;9.15;;;15.70;99.90;;;;;;4957941;28;20031;-80
2022/05/11 02:17:56;;;;;;;10.93;9.70;;;15.70;99.90;;;;;;4958110;28;20039;-78
2022/05/11 02:20:23;;;;;;;10.32;9.38;;;15.70;99.90;;;;;;4958086;28;20039;-78
2022/05/11 02:22:50;;;;;;;10.00;9.07;;;15.60;99.90;;;;;;4956191;28;20376;-77
2022/05/11 02:25:17;;;;;;;9.95;8.98;;;15.50;99.90;;;;;;4957741;28;20038;-79
2022/05/11 02:27:43;;;;;;;11.20;10.20;;;15.50;99.90;;;;;;4957726;29;20111;-80
2022/05/11 02:30:12;;;;;;;10.55;9.63;;;15.40;99.90;;;;;;4957132;29;20034;-79
2022/05/11 02:32:38;;;;;;;9.90;8.90;;;15.40;99.90;;;;;;4958078;28;20035;-80
2022/05/11 02:35:12;;;;;;;11.23;10.15;;;15.40;99.90;;;;;;4958475;28;20035;-79
2022/05/11 02:37:57;;;;;;;9.65;8.70;;;15.40;99.90;;;;;;4959072;28;20419;-79
2022/05/11 02:40:26;;;;;;;9.98;8.82;;;15.40;99.90;;;;;;4957695;29;20039;-79
2022/05/11 02:42:52;;;;;;;9.77;8.93;;;15.30;99.90;;;;;;4957946;28;20031;-79
2022/05/11 02:45:18;;;;;;;10.02;9.13;;;15.30;99.90;;;;;;4956233;29;20525;-79
2022/05/11 02:47:44;;;;;;;9.82;8.93;;;15.20;99.90;;;;;;4956351;29;20039;-79
2022/05/11 02:50:13;;;;;;;11.43;10.32;;;15.20;99.90;;;;;;4958111;28;20117;-80
2022/05/11 02:52:39;;;;;;;10.45;9.40;;;15.20;99.90;;;;;;4957963;28;20472;-79
2022/05/11 02:55:05;;;;;;;10.30;8.98;;;15.20;99.90;;;;;;4956249;29;20079;-80
2022/05/11 02:57:30;;;;;;;11.65;10.02;;;15.30;99.90;;;;;;4957313;28;20035;-78
2022/05/11 02:59:58;;;;;;;11.00;9.90;;;15.20;99.90;;;;;;4957477;28;20507;-80
2022/05/11 03:02:23;;;;;;;10.38;9.35;;;15.10;99.90;;;;;;4955352;28;20400;-80
2022/05/11 03:04:49;;;;;;;10.63;9.68;;;15.10;99.90;;;;;;4957411;28;20035;-79
2022/05/11 03:07:15;;;;;;;11.23;10.13;;;15.00;99.90;;;;;;4957527;28;20055;-79
2022/05/11 03:09:41;;;;;;;10.23;9.32;;;14.90;99.90;;;;;;4957411;29;20055;-78
2022/05/11 03:12:08;;;;;;;9.75;8.95;;;15.00;99.90;;;;;;4956878;28;20337;-79
2022/05/11 03:14:34;;;;;;;10.77;9.60;;;15.00;99.90;;;;;;4956054;28;20042;-80
2022/05/11 03:16:59;;;;;;;10.43;9.52;;;15.00;99.90;;;;;;4957482;28;20035;-80
2022/05/11 03:19:26;;;;;;;10.85;9.82;;;15.00;99.90;;;;;;4956798;29;20034;-79
2022/05/11 03:21:52;;;;;;;10.05;9.15;;;15.00;99.90;;;;;;4957051;28;20065;-79
2022/05/11 03:24:18;;;;;;;11.45;10.25;;;15.00;99.90;;;;;;4955331;29;20389;-79
2022/05/11 03:26:44;;;;;;;13.63;11.73;;;15.00;99.90;;;;;;4955542;29;20114;-79
2022/05/11 03:29:11;;;;;;;12.50;11.50;;;15.00;99.90;;;;;;4956915;28;20059;-79
2022/05/11 03:31:38;;;;;;;12.50;11.27;;;14.90;99.90;;;;;;4957494;28;20031;-80
2022/05/11 03:36:49;;;;;;;11.68;10.57;;;14.80;99.90;;;;;;4958696;29;20059;-76
2022/05/11 03:39:15;;;;;;;15.18;10.55;;;14.80;99.90;;;;;;4956905;28;20039;-78
2022/05/11 03:41:42;;;;;;;11.82;10.63;;;14.80;99.90;;;;;;4956228;28;20058;-78
2022/05/11 03:44:08;;;;;;;11.55;10.38;;;14.80;99.90;;;;;;4955383;29;20032;-79
2022/05/11 03:46:33;;;;;;;13.25;11.95;;;14.80;99.90;;;;;;4955813;28;20024;-79
2022/05/11 03:48:59;;;;;;;12.43;10.55;;;14.80;99.90;;;;;;4956878;28;20035;-80
2022/05/11 03:51:24;;;;;;;13.00;10.25;;;14.80;99.90;;;;;;4956004;28;20035;-81
2022/05/11 03:53:50;;;;;;;11.00;10.02;;;14.70;99.90;;;;;;4955405;29;20042;-79
2022/05/11 03:56:18;;;;;;;12.23;10.95;;;14.70;99.90;;;;;;4956104;29;20029;-79
2022/05/11 03:58:46;;;;;;;13.70;12.02;;;14.80;99.90;;;;;;4956346;28;20050;-80
2022/05/11 04:01:12;;;;;;;12.07;10.45;;;14.80;99.90;;;;;;4956076;28;20023;-79
2022/05/11 04:03:39;;;;;;;12.35;10.98;;;14.80;99.90;;;;;;4956377;28;20407;-79
2022/05/11 04:06:04;;;;;;;13.80;9.98;;;14.90;99.90;;;;;;4955854;28;20031;-78
2022/05/11 04:08:30;;;;;;;12.43;11.23;;;14.90;99.90;;;;;;4955720;29;20476;-80
2022/05/11 04:10:56;;;;;;;13.55;10.25;;;14.90;99.90;;;;;;4954563;28;20070;-79
2022/05/11 04:13:21;;;;;;;12.82;11.45;;;15.00;99.90;;;;;;4955755;28;20502;-79
2022/05/11 04:15:51;;;;;;;17.25;9.68;;;15.00;99.90;;;;;;4954182;29;20061;-79
2022/05/11 04:18:18;;;;;;;15.15;10.45;;;15.10;99.90;;;;;;4956168;28;20455;-80
2022/05/11 04:20:44;;;;;;;12.55;10.55;;;15.10;99.90;;;;;;4956330;28;20527;-79
2022/05/11 04:23:10;;;;;;;10.27;9.38;;;15.20;99.90;;;;;;4955021;28;20054;-79
2022/05/11 04:25:35;;;;;;;9.65;8.75;;;15.30;99.90;;;;;;4954682;29;20396;-80
2022/05/11 04:28:02;;;;;;;10.15;8.98;;;15.40;99.90;;;;;;4954735;29;20202;-79
2022/05/11 04:30:31;;;;;;;10.68;9.55;;;15.50;99.90;;;;;;4954660;28;20050;-79
2022/05/11 04:32:58;;;;;;;11.40;9.05;;;15.70;99.90;;;;;;4954273;28;20035;-80
2022/05/11 04:35:30;;;;;;;8.65;6.95;;;15.80;99.90;;;;;;4955051;28;20042;-79
2022/05/11 04:37:59;;;;;;;8.55;7.68;;;15.90;99.90;;;;;;4954296;29;20444;-79
2022/05/11 04:40:25;;;;;;;13.98;7.53;;;16.20;99.90;;;;;;4956031;28;20386;-79
2022/05/11 04:42:51;;;;;;;10.73;8.43;;;16.40;99.90;;;;;;4954530;28;20035;-80
2022/05/11 04:45:18;;;;;;;8.95;6.68;;;16.60;99.90;;;;;;4957091;28;20058;-79
2022/05/11 04:47:44;;;;;;;8.77;7.97;;;16.80;99.90;;;;;;4957490;28;20034;-79
2022/05/11 04:50:11;;;;;;;6.18;5.68;;;16.90;99.90;;;;;;4955689;28;20031;-80
2022/05/11 04:52:37;;;;;;;9.85;7.32;;;17.20;99.90;;;;;;4954726;28;20028;-80
2022/05/11 04:55:05;;;;;;;7.07;6.47;;;17.40;99.90;;;;;;4955258;29;20538;-80
2022/05/11 04:57:30;;;;;;;7.82;6.88;;;17.60;99.90;;;;;;4955162;29;20118;-78
2022/05/11 04:59:56;;;;;;;7.50;5.30;;;17.60;99.90;;;;;;4955490;28;20295;-80
2022/05/11 05:02:25;;;;;;;5.40;4.90;;;17.70;99.90;;;;;;4956974;28;20050;-80
2022/05/11 05:04:51;;;;;;;6.20;4.53;;;17.80;99.90;;;;;;4956005;28;20500;-79
2022/05/11 05:07:18;;;;;;;4.60;4.30;;;18.00;99.90;;;;;;4955943;28;20133;-79
2022/05/11 05:09:44;;;;;;;5.13;4.03;;;18.30;99.90;;;;;;4955842;28;20031;-79
2022/05/11 05:12:11;;;;;;;5.45;3.72;;;18.50;99.90;;;;;;4955274;28;20170;-80
2022/05/11 05:14:37;;;;;;;4.72;4.32;;;18.50;99.90;;;;;;4954993;28;20122;-79
2022/05/11 05:17:05;;;;;;;6.50;4.10;;;18.60;99.90;;;;;;4955784;28;20038;-78
2022/05/11 05:19:30;;;;;;;4.97;4.53;;;18.80;99.90;;;;;;4954155;28;20035;-77
2022/05/11 05:21:57;;;;;;;4.00;3.42;;;19.50;99.90;;;;;;4955928;28;20114;-80
2022/05/11 05:24:23;;;;;;;3.95;3.63;;;19.80;99.90;;;;;;4954798;29;20680;-79
2022/05/11 05:26:49;;;;;;;3.85;3.50;;;20.30;99.90;;;;;;4956120;28;20031;-79
2022/05/11 05:31:59;;;;;;;11.13;4.18;;;20.60;99.90;;;;;;4955118;28;20407;-80
2022/05/11 05:34:24;;;;;;;3.70;3.40;;;20.60;99.90;;;;;;4955581;28;20035;-79
2022/05/11 05:36:50;;;;;;;3.17;2.85;;;20.80;99.90;;;;;;4954412;29;20031;-79
2022/05/11 05:39:15;;;;;;;3.90;3.08;;;21.70;99.90;;;;;;4954462;29;20122;-79
2022/05/11 05:41:41;;;;;;;3.55;3.25;;;21.60;99.90;;;;;;4956641;28;20110;-80
2022/05/11 05:44:07;;;;;;;5.00;3.15;;;21.90;99.90;;;;;;4957889;29;20122;-80
2022/05/11 05:46:34;;;;;;;4.13;3.20;;;22.70;99.90;;;;;;4958066;29;20035;-79
2022/05/11 05:49:00;;;;;;;3.42;2.92;;;23.00;99.90;;;;;;4959073;28;20059;-80
2022/05/11 05:51:26;;;;;;;3.70;3.40;;;23.10;99.50;;;;;;4959435;28;20065;-80
2022/05/11 05:53:52;;;;;;;4.63;3.72;;;23.20;98.80;;;;;;4957752;29;20145;-79
2022/05/11 05:56:18;;;;;;;4.57;4.18;;;22.70;99.10;;;;;;4958815;29;20024;-79
2022/05/11 05:58:47;;;;;;;9.82;3.60;;;22.80;99.20;;;;;;4960114;28;20706;-80
2022/05/11 06:01:13;;;;;;;5.05;3.13;;;22.80;99.30;;;;;;4959052;28;20027;-80
2022/05/11 06:03:40;;;;;;;3.95;3.20;;;23.40;98.50;;;;;;4959595;28;20027;-80
2022/05/11 06:06:07;;;;;;;6.07;3.70;;;24.20;97.40;;;;;;4957409;29;20034;-80
2022/05/11 06:08:33;;;;;;;3.65;3.25;;;24.30;97.00;;;;;;4958598;29;20050;-80
2022/05/11 06:10:59;;;;;;;4.10;3.80;;;24.40;96.70;;;;;;4958884;28;20027;-80
2022/05/11 06:13:26;;;;;;;4.45;4.05;;;23.40;97.60;;;;;;4959570;28;20035;-81
2022/05/11 06:15:53;;;;;;;8.68;4.30;;;22.80;98.70;;;;;;4963066;28;20023;-80
2022/05/11 06:18:19;;;;;;;6.95;4.03;;;22.00;99.80;;;;;;4964532;29;20039;-78
2022/05/11 06:20:46;;;;;;;4.63;4.03;;;21.90;99.90;;;;;;4963325;29;20399;-80
2022/05/11 06:23:12;;;;;;;4.35;3.95;;;21.90;99.90;;;;;;4963904;28;20432;-80
2022/05/11 06:25:38;;;;;;;5.25;4.00;;;21.80;99.90;;;;;;4966251;29;20027;-79
2022/05/11 06:28:06;;;;;;;4.78;3.58;;;21.60;99.90;;;;;;4968037;28;20027;-79
2022/05/11 06:30:33;;;;;;;3.95;3.65;;;21.80;99.90;;;;;;4966398;28;20028;-78
2022/05/11 06:33:00;;;;;;;3.92;3.55;;;21.80;99.90;;;;;;4963307;28;20031;-78
2022/05/11 06:35:27;;;;;;;3.80;3.42;;;21.60;99.90;;;;;;4962774;29;20120;-79
2022/05/11 06:37:54;;;;;;;4.97;3.70;;;21.50;99.90;;;;;;4963042;28;20047;-78
2022/05/11 06:40:20;;;;;;;4.25;3.92;;;21.60;99.90;;;;;;4962794;29;20110;-77
2022/05/11 06:42:48;;;;;;;3.78;3.47;;;21.60;99.90;;;;;;4962190;28;20483;-77
2022/05/11 06:45:14;;;;;;;4.50;3.80;;;21.60;99.90;;;;;;4962641;28;20027;-78
2022/05/11 06:47:40;;;;;;;4.03;3.72;;;21.70;99.90;;;;;;4960930;29;20028;-78
2022/05/11 06:50:05;;;;;;;3.33;3.10;;;21.80;99.90;;;;;;4961331;28;20041;-79
2022/05/11 06:52:32;;;;;;;4.38;3.78;;;21.80;99.90;;;;;;4959746;28;20070;-79
2022/05/11 07:00:34;;;;;;;3.83;3.42;;;22.10;99.90;;;;;;4961686;29;20042;-80
2022/05/11 07:03:00;;;;;;;3.70;3.40;;;22.10;99.90;;;;;;4959500;28;20055;-79
2022/05/11 07:05:26;;;;;;;3.63;3.33;;;22.40;99.90;;;;;;4962560;28;20031;-79
2022/05/11 07:07:53;;;;;;;4.20;3.53;;;22.60;99.90;;;;;;4963133;28;20059;-77
2022/05/11 07:10:20;;;;;;;4.22;3.13;;;22.80;99.90;;;;;;4963651;28;20058;-79
2022/05/11 07:12:46;;;;;;;4.65;3.22;;;22.80;99.90;;;;;;4959487;28;20031;-79
2022/05/11 07:15:14;;;;;;;3.95;3.10;;;22.70;99.80;;;;;;4959950;28;20046;-79
2022/05/11 07:17:52;;;;;;;4.68;3.50;;;22.70;99.90;;;;;;4959869;29;20031;-79
2022/05/11 07:20:29;;;;;;;4.43;3.03;;;22.90;99.70;;;;;;4958872;29;20082;-81
2022/05/11 07:22:55;;;;;;;4.00;2.83;;;23.00;99.40;;;;;;4956830;28;20028;-79
2022/05/11 07:25:24;;;;;;;3.03;2.72;;;23.00;99.10;;;;;;4959819;28;20031;-80
2022/05/11 07:27:51;;;;;;;3.17;2.90;;;23.20;98.90;;;;;;4959865;29;20042;-80
2022/05/11 07:30:21;;;;;;;4.90;2.88;;;23.40;98.90;;;;;;4957684;29;20032;-80
2022/05/11 07:32:47;;;;;;;4.85;2.85;;;23.60;98.10;;;;;;4959044;28;20039;-80
2022/05/11 07:35:12;;;;;;;4.45;2.53;;;23.80;97.80;;;;;;4958597;28;20136;-79
2022/05/11 07:37:38;;;;;;;3.90;2.83;;;23.80;97.00;;;;;;4959386;28;20033;-81
2022/05/11 07:40:06;;;;;;;3.30;3.10;;;23.90;97.30;;;;;;4958159;28;20031;-79
2022/05/11 07:42:32;;;;;;;3.42;3.00;;;24.00;96.40;;;;;;4958855;28;20024;-80
2022/05/11 07:44:58;;;;;;;4.63;3.08;;;24.00;96.20;;;;;;4958599;28;20085;-78
2022/05/11 07:47:24;;;;;;;4.22;2.30;;;24.20;95.70;;;;;;4957553;29;20066;-80
2022/05/11 07:49:49;;;;;;;4.25;2.70;;;24.50;96.00;;;;;;4961872;28;20058;-79
2022/05/11 07:52:15;;;;;;;4.75;2.30;;;24.50;95.40;;;;;;4960834;28;20039;-80
2022/05/11 07:54:41;;;;;;;5.93;2.70;;;24.60;95.50;;;;;;4959651;28;20106;-79
2022/05/11 07:59:56;;;;;;;4.60;2.53;;;24.60;94.60;;;;;;4962076;29;20046;-79
2022/05/11 08:02:29;;;;;;;3.58;2.38;;;24.70;94.30;;;;;;4961139;28;20097;-79
2022/05/11 08:04:58;;;;;;;4.82;2.20;;;24.80;94.20;;;;;;4959146;28;20055;-80
2022/05/11 08:07:26;;;;;;;4.68;3.60;;;25.00;93.70;;;;;;4961490;28;20086;-79
2022/05/11 08:09:56;;;;;;;2.47;2.25;;;25.20;93.20;;;;;;4959779;28;20098;-79
2022/05/11 08:12:21;;;;;;;1.90;1.80;;;25.20;92.90;;;;;;4957683;28;20024;-79
2022/05/11 08:14:47;;;;;;;6.00;2.67;;;25.30;92.40;;;;;;4956991;28;20082;-79
2022/05/11 08:17:13;;;;;;;5.60;2.30;;;25.10;92.20;;;;;;4957010;28;20039;-79
2022/05/11 08:19:42;;;;;;;6.03;2.22;;;25.20;92.10;;;;;;4956848;28;20031;-80
2022/05/11 08:22:07;;;;;;;4.43;2.40;;;25.40;92.10;;;;;;4956859;28;20487;-80
2022/05/11 08:24:33;;;;;;;2.55;1.92;;;25.40;91.70;;;;;;4957370;28;20122;-80
2022/05/11 08:26:59;;;;;;;3.40;3.05;;;25.50;91.00;;;;;;4956839;29;20074;-80
2022/05/11 08:34:52;;;;;;;9.43;2.17;;;25.80;90.90;;;;;;4957265;29;20091;-78
2022/05/11 08:37:18;;;;;;;1.85;1.65;;;25.50;90.90;;;;;;4956696;28;20074;-80
2022/05/11 08:39:44;;;;;;;2.88;2.63;;;25.70;90.90;;;;;;4955496;29;20042;-79
2022/05/11 08:42:11;;;;;;;2.67;1.85;;;25.90;90.20;;;;;;4958588;28;20028;-80
2022/05/11 08:44:43;;;;;;;2.97;2.13;;;25.90;90.10;;;;;;4955689;29;20027;-79
2022/05/11 08:47:36;;;;;;;2.42;2.10;;;25.90;88.90;;;;;;4958216;28;20082;-81
2022/05/11 08:50:18;;;;;;;3.58;1.80;;;26.00;88.40;;;;;;4959444;28;20031;-79
2022/05/11 08:52:50;;;;;;;2.58;2.28;;;26.10;88.40;;;;;;4957364;28;20031;-79
2022/05/11 08:55:39;;;;;;;4.65;2.22;;;26.10;88.10;;;;;;4956527;28;20403;-79
2022/05/11 08:58:31;;;;;;;2.30;2.10;;;26.30;88.40;;;;;;4956718;28;20035;-80
2022/05/11 09:00:59;;;;;;;2.60;2.10;;;26.50;88.00;;;;;;4961234;28;20028;-79
2022/05/11 09:03:39;;;;;;;3.83;2.53;;;26.30;86.70;;;;;;4956832;29;20034;-81
2022/05/11 09:06:17;;;;;;;2.90;2.13;;;26.50;88.30;;;;;;4957957;28;20031;-79
2022/05/11 09:08:43;;;;;;;2.70;2.50;;;26.40;86.70;;;;;;4957081;28;20038;-80
2022/05/11 09:11:14;;;;;;;3.33;2.47;;;26.60;87.30;;;;;;4956422;28;20540;-80
2022/05/11 09:13:42;;;;;;;3.17;2.40;;;26.80;86.20;;;;;;4957482;28;20159;-80
2022/05/11 09:16:22;;;;;;;2.78;2.45;;;26.70;86.50;;;;;;4955117;28;20035;-80
2022/05/11 09:18:48;;;;;;;2.60;2.40;;;26.90;87.30;;;;;;4960170;28;20039;-80
2022/05/11 09:21:29;;;;;;;4.35;2.10;;;26.90;87.30;;;;;;4957475;28;20031;-80
2022/05/11 09:24:04;;;;;;;6.18;2.67;;;27.20;85.00;;;;;;4958942;29;20042;-79
2022/05/11 09:26:38;;;;;;;2.58;2.38;;;26.70;84.90;;;;;;4957114;28;20055;-80
2022/05/11 09:29:21;;;;;;;12.18;2.92;;;26.70;86.00;;;;;;4959906;29;20039;-81
2022/05/11 09:31:50;;;;;;;3.15;2.40;;;26.90;85.60;;;;;;4956284;28;20181;-84
2022/05/11 09:34:45;;;;;;;4.10;2.30;;;26.90;85.70;;;;;;4957091;29;20516;-80
2022/05/11 09:37:26;;;;;;;3.88;2.50;;;26.90;84.80;;;;;;4952366;28;20092;-79
2022/05/11 09:40:16;;;;;;;2.65;2.45;;;27.00;84.70;;;;;;4956619;29;20038;-79
2022/05/11 09:43:00;;;;;;;3.50;2.63;;;27.20;85.20;;;;;;4957625;28;20396;-79
2022/05/11 09:45:42;;;;;;;2.72;2.22;;;27.20;84.80;;;;;;4957711;28;20027;-79
2022/05/11 09:48:23;;;;;;;5.13;2.42;;;27.00;85.50;;;;;;4960595;28;20023;-79
2022/05/11 09:50:55;;;;;;;7.07;3.05;;;27.00;85.70;;;;;;4956826;29;20397;-80
2022/05/11 09:53:24;;;;;;;3.15;2.88;;;27.20;86.20;;;;;;4959250;28;20027;-79
2022/05/11 09:55:50;;;;;;;4.00;2.63;;;27.30;85.60;;;;;;4959854;28;20499;-80
2022/05/11 09:58:31;;;;;;;5.57;2.58;;;27.70;85.60;;;;;;4958753;28;20043;-79
2022/05/11 10:01:10;;;;;;;6.35;2.65;;;27.90;84.10;;;;;;4959757;28;20100;-80
2022/05/11 10:03:39;;;;;;;4.95;2.88;;;27.80;83.50;;;;;;4958339;28;20407;-79
2022/05/11 10:06:07;;;;;;;5.22;2.75;;;27.60;82.60;;;;;;4957681;29;20121;-78
2022/05/11 10:08:36;;;;;;;3.75;2.63;;;27.60;83.60;;;;;;4958694;28;20042;-79
2022/05/11 10:11:17;;;;;;;2.88;2.45;;;27.70;83.60;;;;;;4956588;28;20464;-81
2022/05/11 10:22:49;;;;;;;4.85;2.95;;;28.30;83.10;;;;;;4955871;28;20494;-80
2022/05/11 10:25:39;;;;;;;10.35;3.28;;;28.30;82.40;;;;;;4954022;29;20027;-80
2022/05/11 10:28:23;;;;;;;3.03;2.53;;;28.30;81.40;;;;;;4957248;28;20066;-80
2022/05/11 10:30:58;;;;;;;3.83;2.90;;;28.20;81.70;;;;;;4958153;29;20058;-81
2022/05/11 10:33:46;;;;;;;2.70;2.50;;;28.10;81.00;;;;;;4959748;28;20061;-82
2022/05/11 10:36:29;;;;;;;2.97;2.67;;;28.40;80.60;;;;;;4958204;29;20041;-80
2022/05/11 10:39:00;;;;;;;2.67;2.47;;;28.70;80.30;;;;;;4959531;28;20125;-81
2022/05/11 10:41:39;;;;;;;2.97;2.67;;;28.50;80.20;;;;;;4958248;28;20038;-81
2022/05/11 10:44:31;;;;;;;2.70;2.45;;;28.20;79.20;;;;;;4960711;28;20451;-80
2022/05/11 10:47:19;;;;;;;2.60;2.25;;;28.00;78.70;;;;;;4959253;29;20078;-80
2022/05/11 10:50:09;;;;;;;4.57;2.55;;;28.00;78.70;;;;;;4957683;29;20078;-81
2022/05/11 10:53:08;;;;;;;5.82;2.17;;;28.40;77.00;;;;;;4958794;28;20027;-80
2022/05/11 10:55:56;;;;;;;3.97;2.40;;;28.30;77.60;;;;;;4958663;29;20042;-80
2022/05/11 10:58:40;;;;;;;3.47;3.17;;;28.50;76.50;;;;;;4959534;28;20492;-79
2022/05/11 11:01:15;;;;;;;2.50;2.25;;;28.60;74.70;;;;;;4957155;28;20035;-80
2022/05/11 11:03:50;;;;;;;3.67;2.75;;;28.80;75.10;;;;;;4962150;28;20028;-81
2022/05/11 11:09:51;;;;;;;3.97;2.15;;;29.20;73.60;;;;;;4922134;29;20038;-80
2022/05/11 11:12:52;;;;;;;3.35;2.13;;;29.50;72.10;;;;;;4922428;29;20083;-80
2022/05/11 11:15:22;;;;;;;3.17;2.33;;;29.60;72.50;;;;;;4954916;28;20495;-81
2022/05/11 11:17:48;;;;;;;2.53;2.13;;;29.60;72.10;;;;;;4960182;28;20031;-80
2022/05/11 11:20:18;;;;;;;2.65;1.92;;;29.40;71.40;;;;;;4961591;28;20130;-79
2022/05/11 11:23:04;;;;;;;4.38;1.80;;;29.40;71.10;;;;;;4960501;28;20031;-80
2022/05/11 11:26:03;;;;;;;4.55;2.00;;;29.00;71.30;;;;;;4960673;29;20058;-77
2022/05/11 11:28:51;;;;;;;4.22;2.58;;;28.80;71.20;;;;;;4960123;28;20383;-80
2022/05/11 11:31:20;;;;;;;2.97;2.10;;;29.00;71.50;;;;;;4952526;28;20042;-79
2022/05/11 11:34:04;;;;;;;2.20;2.00;;;29.20;70.40;;;;;;4962310;28;20031;-80
2022/05/11 11:36:34;;;;;;;5.32;2.10;;;29.50;70.10;;;;;;4959136;29;20031;-80
2022/05/11 11:39:02;;;;;;;3.00;2.15;;;29.60;68.90;;;;;;4960593;28;20031;-80
2022/05/11 11:41:52;;;;;;;4.82;2.17;;;29.20;70.10;;;;;;4960310;28;20054;-80
2022/05/11 11:44:20;;;;;;;2.58;2.10;;;29.20;70.10;;;;;;4959521;29;20482;-80
2022/05/11 11:46:47;;;;;;;2.75;1.98;;;29.10;69.60;;;;;;4959133;29;20031;-80
2022/05/11 11:49:19;;;;;;;2.28;2.13;;;29.10;70.50;;;;;;4958955;29;20400;-80
2022/05/11 11:51:50;;;;;;;3.83;2.30;;;28.80;70.70;;;;;;4959060;28;20044;-80
2022/05/11 11:54:47;;;;;;;7.05;2.20;;;28.70;70.90;;;;;;4959134;29;20031;-80
2022/05/11 11:57:22;;;;;;;1.90;1.80;;;28.90;70.70;;;;;;4956483;28;20063;-78
2022/05/11 12:00:05;;;;;;;3.47;2.10;;;29.00;69.80;;;;;;4959357;29;20050;-81
2022/05/11 12:02:44;;;;;;;2.05;1.60;;;28.90;70.20;;;;;;4958521;28;20027;-80
2022/05/11 12:05:39;;;;;;;2.08;1.90;;;29.00;69.50;;;;;;4959933;28;20065;-80
2022/05/11 12:16:42;;;;;;;3.42;2.47;;;29.70;66.10;;;;;;4957049;29;20038;-80
2022/05/11 12:19:13;;;;;;;3.55;1.75;;;29.70;66.10;;;;;;4955848;29;20122;-80
2022/05/11 12:21:41;;;;;;;2.10;1.63;;;30.00;64.90;;;;;;4956126;28;20403;-78
2022/05/11 12:24:25;;;;;;;3.30;1.50;;;30.00;63.10;;;;;;4955127;29;20027;-80
2022/05/11 12:27:00;;;;;;;1.65;1.40;;;29.70;62.40;;;;;;4955485;28;20078;-84
2022/05/11 12:32:21;;;;;;;1.98;1.65;;;29.60;62.50;;;;;;4957375;28;20498;-80
2022/05/11 12:34:47;;;;;;;3.28;2.22;;;29.80;62.50;;;;;;4957501;28;20050;-81
2022/05/11 12:37:31;;;;;;;3.60;1.95;;;29.50;63.00;;;;;;4956450;28;20114;-80
2022/05/11 12:40:04;;;;;;;2.65;1.42;;;29.50;60.60;;;;;;4955298;28;20425;-79
2022/05/11 12:42:43;;;;;;;2.70;1.60;;;29.70;61.10;;;;;;4955065;28;20031;-80
2022/05/11 12:45:14;;;;;;;3.03;1.70;;;29.60;60.70;;;;;;4956436;28;20031;-81
2022/05/11 12:47:50;;;;;;;;;;;29.80;60.70;;;;;;4958701;28;20027;-79
2022/05/11 12:50:19;;;;;;;3.35;1.70;;;29.90;59.50;;;;;;4956776;28;19915;-80
2022/05/11 12:52:45;;;;;;;6.10;1.55;;;29.90;59.60;;;;;;4954300;28;20110;-79
2022/05/11 12:55:12;;;;;;;1.60;1.50;;;29.80;58.90;;;;;;4956080;28;20400;-80
2022/05/11 12:57:44;;;;;;;2.97;2.42;;;29.80;58.90;;;;;;4955057;29;20034;-81
2022/05/11 13:00:18;;;;;;;9.18;1.63;;;29.60;59.20;;;;;;4955037;28;20491;-81
2022/05/11 13:02:45;;;;;;;1.60;1.50;;;29.40;59.00;;;;;;4954393;28;20039;-79
2022/05/11 13:05:15;;;;;;;1.75;1.33;;;29.40;59.00;;;;;;4955898;28;20031;-78
2022/05/11 13:07:44;;;;;;;;;;;29.40;59.20;;;;;;4955280;29;20369;-80
2022/05/11 13:10:17;;;;;;;3.70;1.88;;;29.70;59.30;;;;;;4954877;29;19981;-81
2022/05/11 13:12:49;;;;;;;1.67;1.50;;;29.80;59.00;;;;;;4955177;28;20028;-81
2022/05/11 13:15:37;;;;;;;3.60;1.48;;;29.70;59.00;;;;;;4955952;28;20039;-80
2022/05/11 13:18:06;;;;;;;1.90;1.45;;;29.40;59.30;;;;;;4954204;29;20027;-80
2022/05/11 13:20:41;;;;;;;2.65;1.92;;;29.70;59.80;;;;;;4955605;29;20122;-80
2022/05/11 13:23:33;;;;;;;2.95;2.20;;;29.80;59.60;;;;;;4956392;28;20031;-81
2022/05/11 13:26:05;;;;;;;1.40;1.30;;;29.60;59.40;;;;;;4956422;28;20391;-78
2022/05/11 13:28:34;;;;;;;5.28;1.65;;;29.90;59.00;;;;;;4954505;29;20406;-80
2022/05/11 13:31:22;;;;;;;1.63;1.40;;;30.00;58.00;;;;;;4954468;28;20058;-79
2022/05/11 13:33:47;;;;;;;4.00;1.30;;;29.80;57.30;;;;;;4955159;28;20031;-79
2022/05/11 13:36:19;;;;;;;3.20;1.80;;;29.70;57.70;;;;;;4955103;29;20182;-80
2022/05/11 13:38:51;;;;;;;5.97;2.90;;;29.90;58.30;;;;;;4954961;28;20047;-80
2022/05/11 13:41:22;;;;;;;1.83;1.50;;;30.00;58.00;;;;;;4954236;28;20031;-80
2022/05/11 13:43:50;;;;;;;1.58;1.48;;;29.90;57.00;;;;;;4954216;28;20031;-80
2022/05/11 13:46:31;;;;;;;4.13;1.85;;;29.70;57.40;;;;;;4955471;28;20038;-80
2022/05/11 13:49:31;;;;;;;5.28;1.48;;;29.60;56.90;;;;;;4954493;29;20054;-80